createdAt,value
2018-10-11T00:01:20.094Z,79.10
2018-10-11T00:03:56.203Z,78.90
2018-10-11T00:06:32.426Z,79.70
2018-10-11T00:09:10.088Z,79.30
2018-10-11T00:11:46.222Z,80.50
2018-10-11T00:14:22.300Z,80.90
2018-10-11T00:16:58.450Z,81.90
2018-10-11T00:19:34.679Z,82.10
2018-10-11T00:22:10.838Z,81.90
2018-10-11T00:24:46.959Z,82.80
2018-10-11T00:27:23.159Z,82.30
2018-10-11T00:29:59.322Z,82.20
2018-10-11T00:32:35.434Z,83.30
2018-10-11T00:35:11.396Z,83.70
2018-10-11T00:37:47.485Z,84.10
2018-10-11T00:40:23.701Z,84.40
2018-10-11T00:42:59.851Z,84.40
2018-10-11T00:45:35.992Z,84.30
2018-10-11T00:48:12.123Z,84.50
2018-10-11T00:50:48.256Z,85.10
2018-10-11T00:53:24.212Z,85.30
2018-10-11T00:56:00.341Z,85.30
2018-10-11T00:58:36.531Z,84.40
2018-10-11T01:01:12.675Z,83.00
2018-10-11T01:03:48.677Z,83.80
2018-10-11T01:06:24.649Z,85.10
2018-10-11T01:09:00.917Z,85.60
2018-10-11T01:11:36.928Z,86.50
2018-10-11T01:14:13.043Z,86.30
2018-10-11T01:16:49.297Z,86.50
2018-10-11T01:19:25.453Z,86.70
2018-10-11T01:22:01.649Z,87.10
2018-10-11T01:24:37.842Z,87.50
2018-10-11T01:27:13.935Z,87.50
2018-10-11T01:29:50.235Z,87.90
2018-10-11T01:32:26.355Z,88.10
2018-10-11T01:35:02.387Z,88.40
2018-10-11T01:37:38.325Z,88.10
2018-10-11T01:40:14.410Z,88.40
2018-10-11T01:43:03.578Z,85.40
2018-10-11T01:45:39.629Z,87.40
2018-10-11T01:48:15.810Z,88.50
2018-10-11T01:50:52.324Z,88.30
2018-10-11T01:53:28.337Z,88.70
2018-10-11T01:56:04.431Z,88.80
2018-10-11T01:58:40.618Z,88.40
2018-10-11T02:01:16.814Z,88.30
2018-10-11T02:03:52.851Z,87.50
2018-10-11T02:06:29.030Z,86.80
2018-10-11T02:09:06.305Z,87.40
2018-10-11T02:11:44.311Z,87.80
2018-10-11T02:14:20.557Z,88.40
2018-10-11T02:16:56.565Z,89.20
2018-10-11T02:19:32.728Z,90.00
2018-10-11T02:22:08.821Z,90.50
2018-10-11T02:24:44.911Z,90.80
2018-10-11T02:27:21.096Z,90.90
2018-10-11T02:29:57.079Z,89.30
2018-10-11T02:32:33.286Z,90.90
2018-10-11T02:35:09.522Z,90.80
2018-10-11T02:37:45.454Z,91.10
2018-10-11T02:40:21.695Z,90.90
2018-10-11T02:42:57.839Z,90.60
2018-10-11T02:45:34.099Z,90.50
2018-10-11T02:48:10.163Z,91.20
2018-10-11T02:50:46.478Z,91.00
2018-10-11T02:53:22.678Z,90.90
2018-10-11T02:55:58.956Z,88.50
2018-10-11T02:58:52.270Z,88.50
2018-10-11T03:01:28.603Z,88.70
2018-10-11T03:04:06.189Z,88.70
2018-10-11T03:06:42.266Z,88.20
2018-10-11T03:09:18.936Z,90.40
2018-10-11T03:11:55.673Z,90.40
2018-10-11T03:14:31.631Z,91.70
2018-10-11T03:17:09.238Z,91.30
2018-10-11T03:19:45.213Z,91.50
2018-10-11T03:22:21.326Z,91.40
2018-10-11T03:24:57.343Z,91.30
2018-10-11T03:27:33.476Z,91.30
2018-10-11T03:30:09.630Z,91.50
2018-10-11T03:32:45.818Z,90.90
2018-10-11T03:37:46.817Z,91.20
2018-10-11T03:40:22.998Z,92.20
2018-10-11T03:42:59.129Z,92.80
2018-10-11T03:45:35.125Z,93.20
2018-10-11T03:48:11.099Z,93.20
2018-10-11T03:50:47.304Z,93.00
2018-10-11T03:53:23.471Z,93.40
2018-10-11T03:55:59.611Z,93.30
2018-10-11T03:58:35.784Z,93.40
2018-10-11T04:01:12.093Z,93.80
2018-10-11T04:03:48.261Z,94.20
2018-10-11T04:06:24.588Z,93.90
2018-10-11T04:09:00.644Z,94.20
2018-10-11T04:11:36.712Z,93.90
2018-10-11T04:14:12.813Z,94.20
2018-10-11T04:16:49.165Z,94.00
2018-10-11T04:19:25.371Z,94.40
2018-10-11T04:22:01.573Z,94.70
2018-10-11T04:24:37.658Z,94.20
2018-10-11T04:27:13.618Z,94.00
2018-10-11T04:29:49.784Z,94.70
2018-10-11T04:32:25.959Z,94.70
2018-10-11T04:35:02.303Z,95.20
2018-10-11T04:37:38.495Z,94.50
2018-10-11T04:40:14.591Z,95.30
2018-10-11T04:42:50.748Z,95.10
2018-10-11T04:45:26.637Z,95.60
2018-10-11T04:48:02.664Z,96.50
2018-10-11T04:50:38.901Z,96.80
2018-10-11T04:53:15.494Z,96.40
2018-10-11T04:55:51.653Z,96.50
2018-10-11T04:58:27.635Z,96.20
2018-10-11T05:01:03.902Z,96.40
2018-10-11T05:03:40.010Z,96.60
2018-10-11T05:06:16.523Z,97.10
2018-10-11T05:08:52.595Z,97.20
2018-10-11T05:11:28.622Z,97.60
2018-10-11T05:14:04.682Z,97.80
2018-10-11T05:16:40.603Z,98.20
2018-10-11T05:19:16.803Z,98.30
2018-10-11T05:21:52.822Z,98.10
2018-10-11T05:24:28.920Z,98.10
2018-10-11T05:27:05.243Z,98.40
2018-10-11T05:29:41.257Z,98.50
2018-10-11T05:32:17.426Z,97.70
2018-10-11T05:34:53.584Z,96.30
2018-10-11T05:37:29.795Z,97.30
2018-10-11T05:40:05.812Z,97.50
2018-10-11T05:42:42.149Z,98.50
2018-10-11T05:45:19.865Z,98.10
2018-10-11T05:47:56.012Z,98.70
2018-10-11T05:50:32.127Z,99.90
2018-10-11T05:53:08.245Z,99.60
2018-10-11T05:55:44.434Z,99.90
2018-10-11T05:58:21.198Z,99.90
2018-10-11T06:00:57.274Z,99.90
2018-10-11T06:03:33.384Z,99.80
2018-10-11T06:06:09.345Z,99.70
2018-10-11T06:08:46.093Z,99.40
2018-10-11T06:11:22.057Z,99.00
2018-10-11T06:13:58.220Z,99.10
2018-10-11T06:16:34.284Z,97.70
2018-10-11T06:19:12.503Z,97.80
2018-10-11T06:21:48.481Z,97.60
2018-10-11T06:24:24.651Z,97.80
2018-10-11T06:27:02.119Z,96.40
2018-10-11T06:29:40.098Z,93.70
2018-10-11T06:32:16.282Z,89.60
2018-10-11T06:34:52.313Z,87.30
2018-10-11T06:37:29.065Z,83.60
2018-10-11T06:40:06.208Z,80.10
2018-10-11T06:42:43.613Z,79.30
2018-10-11T06:45:19.524Z,76.50
2018-10-11T06:47:59.427Z,75.30
2018-10-11T06:50:35.571Z,73.40
2018-10-11T06:53:11.780Z,71.00
2018-10-11T06:55:47.982Z,68.70
2018-10-11T06:58:23.910Z,65.30
2018-10-11T07:00:59.914Z,65.20
2018-10-11T07:03:36.127Z,62.30
2018-10-11T07:06:12.354Z,59.60
2018-10-11T07:08:48.565Z,57.50
2018-10-11T07:11:24.810Z,56.90
2018-10-11T07:14:01.096Z,56.30
2018-10-11T07:16:37.215Z,56.30
2018-10-11T07:19:13.377Z,55.50
2018-10-11T07:21:49.681Z,55.10
2018-10-11T07:24:25.703Z,54.70
2018-10-11T07:27:09.339Z,54.10
2018-10-11T07:29:45.802Z,51.70
2018-10-11T07:32:22.187Z,51.30
2018-10-11T07:34:59.248Z,50.70
2018-10-11T07:37:35.349Z,49.80
2018-10-11T07:40:11.426Z,47.60
2018-10-11T07:42:47.961Z,47.90
2018-10-11T07:45:24.099Z,47.30
2018-10-11T07:48:01.283Z,45.70
2018-10-11T07:50:39.308Z,45.80
2018-10-11T07:53:15.776Z,45.60
2018-10-11T07:55:52.113Z,43.30
2018-10-11T07:58:28.230Z,43.80
2018-10-11T08:01:04.435Z,44.70
2018-10-11T08:03:40.580Z,44.50
2018-10-11T08:06:16.597Z,42.80
2018-10-11T08:08:53.089Z,42.40
2018-10-11T08:11:29.511Z,42.80
2018-10-11T08:14:06.060Z,42.00
2018-10-11T08:16:42.458Z,40.70
2018-10-11T08:19:18.900Z,41.00
2018-10-11T08:21:54.786Z,40.00
2018-10-11T08:24:30.973Z,39.90
2018-10-11T08:27:07.259Z,39.80
2018-10-11T08:29:43.434Z,39.60
2018-10-11T08:32:19.677Z,38.60
2018-10-11T08:34:55.684Z,38.20
2018-10-11T08:37:31.852Z,39.00
2018-10-11T08:40:08.005Z,38.80
2018-10-11T08:42:44.133Z,38.70
2018-10-11T08:45:20.196Z,38.80
2018-10-11T08:47:56.418Z,39.80
2018-10-11T08:50:32.554Z,39.60
2018-10-11T08:53:09.893Z,40.80
2018-10-11T08:55:45.853Z,39.70
2018-10-11T08:58:22.273Z,37.90
2018-10-11T09:00:58.823Z,37.70
2018-10-11T09:03:35.202Z,38.20
2018-10-11T09:06:11.405Z,38.10
2018-10-11T09:08:48.506Z,37.10
2018-10-11T09:11:24.662Z,37.90
2018-10-11T09:14:00.915Z,37.70
2018-10-11T09:16:36.897Z,36.60
2018-10-11T09:19:13.127Z,36.80
2018-10-11T09:21:49.401Z,36.80
2018-10-11T09:24:25.589Z,35.60
2018-10-11T09:27:01.540Z,35.50
2018-10-11T09:29:37.626Z,35.80
2018-10-11T09:32:14.680Z,34.80
2018-10-11T09:34:50.881Z,34.50
2018-10-11T09:37:27.152Z,35.20
2018-10-11T09:40:03.543Z,35.10
2018-10-11T09:42:39.671Z,36.10
2018-10-11T09:45:16.714Z,35.00
2018-10-11T09:47:52.788Z,34.70
2018-10-11T09:50:29.068Z,35.40
2018-10-11T09:53:05.156Z,35.40
2018-10-11T09:55:41.324Z,36.60
2018-10-11T09:58:17.419Z,36.30
2018-10-11T10:00:58.645Z,36.90
2018-10-11T10:03:34.747Z,34.90
2018-10-11T10:06:11.398Z,36.70
2018-10-11T10:08:48.216Z,35.60
2018-10-11T10:11:24.393Z,35.20
2018-10-11T10:14:02.309Z,34.80
2018-10-11T10:16:38.963Z,35.30
2018-10-11T10:19:17.156Z,34.00
2018-10-11T10:21:55.139Z,34.00
2018-10-11T10:24:31.525Z,34.60
2018-10-11T10:27:08.249Z,35.00
2018-10-11T10:29:44.456Z,35.30
2018-10-11T10:32:21.632Z,34.70
2018-10-11T10:34:58.619Z,34.60
2018-10-11T10:37:35.050Z,34.20
2018-10-11T10:40:13.652Z,34.20
2018-10-11T10:42:49.716Z,33.90
2018-10-11T10:45:25.983Z,34.20
2018-10-11T10:48:02.057Z,34.70
2018-10-11T10:50:38.307Z,33.80
2018-10-11T10:53:14.282Z,35.70
2018-10-11T10:55:50.355Z,35.90
2018-10-11T10:58:26.526Z,35.00
2018-10-11T11:01:04.335Z,34.20
2018-10-11T11:03:41.146Z,33.70
2018-10-11T11:06:17.701Z,33.90
2018-10-11T11:08:53.828Z,32.50
2018-10-11T11:11:30.065Z,32.30
2018-10-11T11:14:06.235Z,31.90
2018-10-11T11:16:42.902Z,31.80
2018-10-11T11:19:18.933Z,31.30
2018-10-11T11:21:55.151Z,31.70
2018-10-11T11:24:31.245Z,30.90
2018-10-11T11:27:07.380Z,32.00
2018-10-11T11:29:44.249Z,30.80
2018-10-11T11:32:20.378Z,31.90
2018-10-11T11:34:56.430Z,31.90
2018-10-11T11:37:32.452Z,32.40
2018-10-11T11:40:08.475Z,32.70
2018-10-11T11:42:44.512Z,32.30
2018-10-11T11:45:20.426Z,33.20
2018-10-11T11:47:57.133Z,34.00
2018-10-11T11:50:33.468Z,33.50
2018-10-11T11:53:09.679Z,33.60
2018-10-11T11:55:45.663Z,33.90
2018-10-11T11:58:21.819Z,33.60
2018-10-11T12:00:57.911Z,33.90
2018-10-11T12:03:33.860Z,33.50
2018-10-11T12:06:10.737Z,34.50
2018-10-11T12:08:46.834Z,34.70
2018-10-11T12:11:22.890Z,34.60
2018-10-11T12:13:58.851Z,34.20
2018-10-11T12:16:35.144Z,34.00
2018-10-11T12:19:11.691Z,34.10
2018-10-11T12:21:47.647Z,33.90
2018-10-11T12:24:23.655Z,35.00
2018-10-11T12:26:59.758Z,35.70
2018-10-11T12:29:35.813Z,34.80
2018-10-11T12:32:11.926Z,34.80
2018-10-11T12:34:48.030Z,34.60
2018-10-11T12:37:24.143Z,34.50
2018-10-11T12:42:38.966Z,34.20
2018-10-11T12:45:15.665Z,34.00
2018-10-11T12:47:51.740Z,33.30
2018-10-11T12:50:27.953Z,33.60
2018-10-11T12:53:04.113Z,33.90
2018-10-11T12:55:40.034Z,34.10
2018-10-11T12:58:16.126Z,33.50
2018-10-11T13:00:52.321Z,33.00
2018-10-11T13:03:28.534Z,33.60
2018-10-11T13:06:04.521Z,33.90
2018-10-11T13:08:40.658Z,33.20
2018-10-11T13:11:16.745Z,33.50
2018-10-11T13:13:53.071Z,34.10
2018-10-11T13:16:28.870Z,34.80
2018-10-11T13:19:05.048Z,34.90
2018-10-11T13:21:41.055Z,35.90
2018-10-11T13:24:17.173Z,34.90
2018-10-11T13:26:53.391Z,35.10
2018-10-11T13:29:29.492Z,36.30
2018-10-11T13:32:05.555Z,36.40
2018-10-11T13:34:41.633Z,37.50
2018-10-11T13:37:17.584Z,38.60
2018-10-11T13:39:56.990Z,38.70
2018-10-11T13:42:29.758Z,39.10
2018-10-11T13:45:06.014Z,39.60
2018-10-11T13:47:44.857Z,39.70
2018-10-11T13:50:18.180Z,39.60
2018-10-11T13:52:54.192Z,39.90
2018-10-11T13:55:30.132Z,39.90
2018-10-11T13:58:06.439Z,40.00
2018-10-11T14:00:42.636Z,39.70
2018-10-11T14:03:18.710Z,39.70
2018-10-11T14:05:54.716Z,39.20
2018-10-11T14:08:30.798Z,39.00
2018-10-11T14:11:07.286Z,38.40
2018-10-11T14:13:43.314Z,38.30
2018-10-11T14:16:19.329Z,38.90
2018-10-11T14:18:55.575Z,39.40
2018-10-11T14:21:31.583Z,39.10
2018-10-11T14:24:07.814Z,39.00
2018-10-11T14:26:43.772Z,39.10
2018-10-11T14:29:19.821Z,39.70
2018-10-11T14:31:55.980Z,39.60
2018-10-11T14:34:32.040Z,39.90
2018-10-11T14:37:08.129Z,40.40
2018-10-11T14:39:44.197Z,41.00
2018-10-11T14:42:20.500Z,41.20
2018-10-11T14:44:56.475Z,41.30
2018-10-11T14:47:32.561Z,41.70
2018-10-11T14:50:08.766Z,41.90
2018-10-11T14:52:44.955Z,40.80
2018-10-11T14:55:22.064Z,41.20
2018-10-11T14:57:58.133Z,41.50
2018-10-11T15:00:34.360Z,41.50
2018-10-11T15:03:10.577Z,40.50
2018-10-11T15:05:46.504Z,41.20
2018-10-11T15:08:22.610Z,41.50
2018-10-11T15:10:58.671Z,41.00
2018-10-11T15:13:34.653Z,40.80
2018-10-11T15:16:10.607Z,41.80
2018-10-11T15:18:46.657Z,41.70
2018-10-11T15:21:22.650Z,42.20
2018-10-11T15:23:58.922Z,41.10
2018-10-11T15:26:34.148Z,41.30
2018-10-11T15:29:10.084Z,41.10
2018-10-11T15:31:46.067Z,41.50
2018-10-11T15:34:22.250Z,41.80
2018-10-11T15:36:58.402Z,42.00
2018-10-11T15:39:34.543Z,42.00
2018-10-11T15:42:10.627Z,41.00
2018-10-11T15:44:46.685Z,41.60
2018-10-11T15:47:22.905Z,43.00
2018-10-11T15:49:59.140Z,43.90
2018-10-11T15:52:35.351Z,43.50
2018-10-11T15:55:11.241Z,43.80
2018-10-11T15:57:47.366Z,44.40
2018-10-11T16:00:23.604Z,44.20
2018-10-11T16:02:59.827Z,44.70
2018-10-11T16:05:36.911Z,44.90
2018-10-11T16:08:13.230Z,44.40
2018-10-11T16:10:49.231Z,44.40
2018-10-11T16:13:25.294Z,44.80
2018-10-11T16:16:01.440Z,44.60
2018-10-11T16:18:37.619Z,44.70
2018-10-11T16:21:13.674Z,44.80
2018-10-11T16:23:50.088Z,46.70
2018-10-11T16:26:26.155Z,45.60
2018-10-11T16:29:02.196Z,45.80
2018-10-11T16:31:38.400Z,46.80
2018-10-11T16:34:14.452Z,46.10
2018-10-11T16:36:50.722Z,48.30
2018-10-11T16:39:26.823Z,49.60
2018-10-11T16:42:02.992Z,50.30
2018-10-11T16:44:38.915Z,50.80
2018-10-11T16:47:15.030Z,52.00
2018-10-11T16:49:51.390Z,52.20
2018-10-11T16:52:27.482Z,51.80
2018-10-11T16:55:03.557Z,51.80
2018-10-11T16:57:39.686Z,51.80
2018-10-11T17:00:15.797Z,52.30
2018-10-11T17:02:51.792Z,52.70
2018-10-11T17:05:28.029Z,52.80
2018-10-11T17:08:04.121Z,53.40
2018-10-11T17:10:40.307Z,53.30
2018-10-11T17:13:16.438Z,54.60
2018-10-11T17:15:52.683Z,54.80
2018-10-11T17:18:28.723Z,55.50
2018-10-11T17:21:04.891Z,54.40
2018-10-11T17:23:41.151Z,54.20
2018-10-11T17:26:17.310Z,54.20
2018-10-11T17:28:53.507Z,54.20
2018-10-11T17:31:29.569Z,55.00
2018-10-11T17:34:05.968Z,55.80
2018-10-11T17:36:43.191Z,54.80
2018-10-11T17:39:19.344Z,55.10
2018-10-11T17:41:57.157Z,55.40
2018-10-11T17:44:33.201Z,55.80
2018-10-11T17:47:09.191Z,55.80
2018-10-11T17:49:45.383Z,56.70
2018-10-11T17:52:21.588Z,56.70
2018-10-11T17:54:58.525Z,56.90
2018-10-11T17:57:34.698Z,57.90
2018-10-11T18:00:11.458Z,58.80
2018-10-11T18:02:47.601Z,60.70
2018-10-11T18:05:23.645Z,61.00
2018-10-11T18:07:59.786Z,63.30
2018-10-11T18:10:35.896Z,66.00
2018-10-11T18:13:12.027Z,62.30
2018-10-11T18:15:48.252Z,64.70
2018-10-11T18:18:24.444Z,67.10
2018-10-11T18:21:00.421Z,69.20
2018-10-11T18:23:36.463Z,70.80
2018-10-11T18:26:12.838Z,73.20
2018-10-11T18:28:48.941Z,72.40
2018-10-11T18:31:25.126Z,74.00
2018-10-11T18:34:01.667Z,71.60
2018-10-11T18:36:37.772Z,71.70
2018-10-11T18:39:15.228Z,74.00
2018-10-11T18:41:51.504Z,76.20
2018-10-11T18:44:27.576Z,77.40
2018-10-11T18:47:04.196Z,72.80
2018-10-11T18:49:40.363Z,73.20
2018-10-11T18:52:17.081Z,76.00
2018-10-11T18:54:53.157Z,77.10
2018-10-11T18:57:29.258Z,77.30
2018-10-11T19:00:06.059Z,78.40
2018-10-11T19:02:42.325Z,79.00
2018-10-11T19:05:18.280Z,79.00
2018-10-11T19:07:54.295Z,80.20
2018-10-11T19:10:30.447Z,79.90
2018-10-11T19:13:06.412Z,80.90
2018-10-11T19:15:42.502Z,79.10
2018-10-11T19:18:18.717Z,79.00
2018-10-11T19:20:54.902Z,78.80
2018-10-11T19:23:31.175Z,80.30
2018-10-11T19:26:07.471Z,81.50
2018-10-11T19:28:43.821Z,81.50
2018-10-11T19:31:19.934Z,81.60
2018-10-11T19:33:55.961Z,81.90
2018-10-11T19:36:32.265Z,80.50
2018-10-11T19:39:10.943Z,79.90
2018-10-11T19:41:46.982Z,80.50
2018-10-11T19:44:23.175Z,80.00
2018-10-11T19:46:59.237Z,81.30
2018-10-11T19:49:35.428Z,82.00
2018-10-11T19:52:11.679Z,82.30
2018-10-11T19:54:48.579Z,81.70
2018-10-11T19:57:24.654Z,83.20
2018-10-11T20:00:00.916Z,83.70
2018-10-11T20:02:37.038Z,84.10
2018-10-11T20:05:13.452Z,82.90
2018-10-11T20:07:50.874Z,82.00
2018-10-11T20:10:26.965Z,83.20
2018-10-11T20:13:03.275Z,83.40
2018-10-11T20:15:39.285Z,83.30
2018-10-11T20:18:15.502Z,82.00
2018-10-11T20:20:51.670Z,82.00
2018-10-11T20:23:27.975Z,81.90
2018-10-11T20:26:04.218Z,82.50
2018-10-11T20:28:40.277Z,82.30
2018-10-11T20:31:16.491Z,82.80
2018-10-11T20:33:52.518Z,83.80
2018-10-11T20:36:28.711Z,84.10
2018-10-11T20:39:07.406Z,84.70
2018-10-11T20:41:43.496Z,84.80
2018-10-11T20:44:19.543Z,85.20
2018-10-11T20:46:57.252Z,86.20
2018-10-11T20:49:33.232Z,86.70
2018-10-11T20:52:10.654Z,87.20
2018-10-11T20:54:46.826Z,87.80
2018-10-11T20:57:25.448Z,87.40
2018-10-11T21:00:02.251Z,87.60
2018-10-11T21:02:38.332Z,87.20
2018-10-11T21:05:16.027Z,87.00
2018-10-11T21:07:52.103Z,88.20
2018-10-11T21:10:28.392Z,87.50
2018-10-11T21:13:05.425Z,87.50
2018-10-11T21:15:41.998Z,87.40
2018-10-11T21:18:18.132Z,87.70
2018-10-11T21:20:54.206Z,87.70
2018-10-11T21:23:31.473Z,88.20
2018-10-11T21:26:07.840Z,88.60
2018-10-11T21:28:48.922Z,88.10
2018-10-11T21:31:25.303Z,88.10
2018-10-11T21:34:01.382Z,88.50
2018-10-11T21:36:37.413Z,88.60
2018-10-11T21:39:14.045Z,89.20
2018-10-11T21:41:50.112Z,89.10
2018-10-11T21:44:26.862Z,88.70
2018-10-11T21:47:03.776Z,88.60
2018-10-11T21:49:40.077Z,88.70
2018-10-11T21:52:16.302Z,87.30
2018-10-11T21:54:52.380Z,86.90
2018-10-11T21:57:28.567Z,87.70
2018-10-11T22:00:05.482Z,88.70
2018-10-11T22:02:41.524Z,88.90
2018-10-11T22:05:17.591Z,88.60
2018-10-11T22:07:53.575Z,88.90
2018-10-11T22:10:29.645Z,88.60
2018-10-11T22:13:05.877Z,88.10
2018-10-11T22:15:42.015Z,88.70
2018-10-11T22:18:18.100Z,90.00
2018-10-11T22:20:54.284Z,91.80
2018-10-11T22:23:31.254Z,92.80
2018-10-11T22:26:07.930Z,90.80
2018-10-11T22:28:44.075Z,91.00
2018-10-11T22:31:21.458Z,91.50
2018-10-11T22:33:57.545Z,92.20
2018-10-11T22:36:33.744Z,92.40
2018-10-11T22:39:11.274Z,92.30
2018-10-11T22:41:47.281Z,92.00
2018-10-11T22:44:23.548Z,91.80
2018-10-11T22:46:59.542Z,90.50
2018-10-11T22:49:35.628Z,90.40
2018-10-11T22:52:13.941Z,91.40
2018-10-11T22:54:50.333Z,92.30
2018-10-11T22:57:26.356Z,92.60
2018-10-11T23:00:02.356Z,92.90
2018-10-11T23:02:38.468Z,93.40
2018-10-11T23:05:14.437Z,92.60
2018-10-11T23:07:50.564Z,93.00
2018-10-11T23:10:26.655Z,95.60
2018-10-11T23:13:02.838Z,95.60
2018-10-11T23:15:39.075Z,95.20
2018-10-11T23:18:15.088Z,95.40
2018-10-11T23:20:51.214Z,95.90
2018-10-11T23:23:27.392Z,96.10
2018-10-11T23:26:03.561Z,96.10
2018-10-11T23:28:40.184Z,96.40
2018-10-11T23:31:16.139Z,96.50
2018-10-11T23:33:52.266Z,96.80
2018-10-11T23:36:28.266Z,95.30
2018-10-11T23:39:05.822Z,95.10
2018-10-11T23:41:42.175Z,94.80
2018-10-11T23:44:18.329Z,94.70
2018-10-11T23:46:54.438Z,95.10
2018-10-11T23:49:30.410Z,96.50
2018-10-11T23:52:06.725Z,96.40
2018-10-11T23:54:42.740Z,95.80
2018-10-11T23:57:18.856Z,95.90
2018-10-11T23:59:54.851Z,96.70
